Time;durP1;ratioP1;P1;durP2;ratioP2;P2;SDS_P1;SDS_P2;PMS_P1;PMS_P2;Temp;Humidity;BMP_temperature;BMP_pressure;BME280_temperature;BME280_humidity;BME280_pressure;Samples;Min_cycle;Max_cycle;Signal;HPM_P1;HPM_P2
2023/09/26 00:00:09;;;;;;;2.85;2.65;;;;;;;;;;5141339;27;20575;-62
2023/09/26 00:02:38;;;;;;;2.80;2.53;;;;;;;;;;5141578;27;20220;-63
2023/09/26 00:05:08;;;;;;;2.75;2.55;;;;;;;;;;5141147;27;20241;-61
2023/09/26 00:07:37;;;;;;;2.90;2.70;;;;;;;;;;5141475;27;20205;-61
2023/09/26 00:10:05;;;;;;;2.80;2.60;;;;;;;;;;5141365;27;20212;-61
2023/09/26 00:12:33;;;;;;;2.80;2.60;;;;;;;;;;5141438;27;20515;-61
2023/09/26 00:15:01;;;;;;;2.70;2.50;;;;;;;;;;5140833;27;20306;-61
2023/09/26 00:17:30;;;;;;;2.63;2.42;;;;;;;;;;5139705;27;20222;-61
2023/09/26 00:19:59;;;;;;;2.65;2.45;;;;;;;;;;5140628;27;20481;-61
2023/09/26 00:22:27;;;;;;;2.78;2.58;;;;;;;;;;5141081;27;20224;-61
2023/09/26 00:24:55;;;;;;;2.85;2.65;;;;;;;;;;5141170;27;20863;-61
2023/09/26 00:27:23;;;;;;;3.00;2.80;;;;;;;;;;5141062;27;20198;-61
2023/09/26 00:29:50;;;;;;;2.80;2.60;;;;;;;;;;5141353;27;20479;-61
2023/09/26 00:32:18;;;;;;;3.08;2.88;;;;;;;;;;5140462;27;20302;-61
2023/09/26 00:34:47;;;;;;;2.90;2.70;;;;;;;;;;5140602;27;20209;-62
2023/09/26 00:37:15;;;;;;;2.40;2.30;;;;;;;;;;5140751;27;20236;-63
2023/09/26 00:39:43;;;;;;;2.88;2.67;;;;;;;;;;5140155;27;20274;-63
2023/09/26 00:42:09;;;;;;;2.83;2.63;;;;;;;;;;5140619;27;20288;-63
2023/09/26 00:44:37;;;;;;;3.08;2.88;;;;;;;;;;5140733;27;20197;-61
2023/09/26 00:47:05;;;;;;;2.58;2.40;;;;;;;;;;5140211;27;20202;-63
2023/09/26 00:49:33;;;;;;;2.95;2.55;;;;;;;;;;5140347;27;20203;-61
2023/09/26 00:52:03;;;;;;;2.90;2.60;;;;;;;;;;5139867;27;20760;-63
2023/09/26 00:54:30;;;;;;;2.58;2.38;;;;;;;;;;5140866;27;20245;-61
2023/09/26 00:56:59;;;;;;;2.83;2.60;;;;;;;;;;5140343;27;20631;-61
2023/09/26 00:59:27;;;;;;;2.88;2.67;;;;;;;;;;5140269;27;20202;-61
2023/09/26 01:01:55;;;;;;;2.60;2.40;;;;;;;;;;5139904;27;20242;-61
2023/09/26 01:04:24;;;;;;;2.50;2.30;;;;;;;;;;5139752;27;20203;-62
2023/09/26 01:06:52;;;;;;;2.63;2.42;;;;;;;;;;5141024;27;20282;-62
2023/09/26 01:09:23;;;;;;;2.70;2.50;;;;;;;;;;5140005;27;20202;-62
2023/09/26 01:11:50;;;;;;;2.60;2.40;;;;;;;;;;5139676;27;20202;-62
2023/09/26 01:14:18;;;;;;;2.67;2.47;;;;;;;;;;5140225;27;20256;-62
2023/09/26 01:16:46;;;;;;;2.55;2.45;;;;;;;;;;5139735;27;20243;-62
2023/09/26 01:19:14;;;;;;;2.60;2.40;;;;;;;;;;5139784;27;20242;-62
2023/09/26 01:21:41;;;;;;;2.60;2.40;;;;;;;;;;5140114;27;20241;-62
2023/09/26 01:24:10;;;;;;;2.80;2.60;;;;;;;;;;5139822;27;20206;-62
2023/09/26 01:26:38;;;;;;;2.40;2.30;;;;;;;;;;5139595;27;20296;-62
2023/09/26 01:29:07;;;;;;;2.60;2.40;;;;;;;;;;5139451;27;20194;-62
2023/09/26 01:31:35;;;;;;;2.45;2.30;;;;;;;;;;5139454;27;20214;-62
2023/09/26 01:34:03;;;;;;;2.80;2.60;;;;;;;;;;5139821;27;20262;-62
2023/09/26 01:36:31;;;;;;;2.75;2.55;;;;;;;;;;5139455;27;20620;-62
2023/09/26 01:38:59;;;;;;;2.60;2.40;;;;;;;;;;5139276;27;20546;-62
2023/09/26 01:41:29;;;;;;;2.53;2.33;;;;;;;;;;5140039;27;20276;-62
2023/09/26 01:43:57;;;;;;;2.60;2.40;;;;;;;;;;5139502;27;20212;-62
2023/09/26 01:46:25;;;;;;;2.45;2.25;;;;;;;;;;5139622;27;20288;-62
2023/09/26 01:48:53;;;;;;;2.72;2.53;;;;;;;;;;5139476;27;20205;-62
2023/09/26 01:51:21;;;;;;;2.70;2.50;;;;;;;;;;5139466;27;20263;-62
2023/09/26 01:53:48;;;;;;;2.58;2.38;;;;;;;;;;5139299;27;20606;-62
2023/09/26 01:56:17;;;;;;;2.60;2.50;;;;;;;;;;5139532;27;20266;-61
2023/09/26 01:58:46;;;;;;;2.42;2.25;;;;;;;;;;5139149;27;20637;-62
2023/09/26 02:01:13;;;;;;;2.60;2.50;;;;;;;;;;5138753;27;20654;-62
2023/09/26 02:03:41;;;;;;;2.85;2.65;;;;;;;;;;5138173;27;20254;-62
2023/09/26 02:06:09;;;;;;;2.80;2.60;;;;;;;;;;5138490;27;20329;-62
2023/09/26 02:08:36;;;;;;;2.90;2.70;;;;;;;;;;5139766;27;20225;-62
2023/09/26 02:11:04;;;;;;;2.95;2.65;;;;;;;;;;5138691;27;20198;-62
2023/09/26 02:13:32;;;;;;;2.70;2.50;;;;;;;;;;5138729;27;20212;-62
2023/09/26 02:16:01;;;;;;;2.85;2.65;;;;;;;;;;5138946;27;20254;-62
2023/09/26 02:18:29;;;;;;;2.83;2.63;;;;;;;;;;5138314;27;20229;-62
2023/09/26 02:20:57;;;;;;;3.20;2.80;;;;;;;;;;5139008;27;20212;-62
2023/09/26 02:23:25;;;;;;;2.40;2.20;;;;;;;;;;5138945;27;20453;-62
2023/09/26 02:25:52;;;;;;;2.60;2.40;;;;;;;;;;5139150;27;20587;-61
2023/09/26 02:28:20;;;;;;;2.60;2.40;;;;;;;;;;5138296;27;20198;-62
2023/09/26 02:30:48;;;;;;;2.70;2.50;;;;;;;;;;5138683;27;20210;-61
2023/09/26 02:33:18;;;;;;;2.75;2.58;;;;;;;;;;5138122;27;20285;-62
2023/09/26 02:35:45;;;;;;;2.80;2.60;;;;;;;;;;5139177;27;20201;-62
2023/09/26 02:38:13;;;;;;;2.95;2.75;;;;;;;;;;5138544;27;20236;-62
2023/09/26 02:40:41;;;;;;;2.67;2.50;;;;;;;;;;5138071;27;20202;-62
2023/09/26 02:43:08;;;;;;;3.13;2.83;;;;;;;;;;5138006;27;20202;-62
2023/09/26 02:45:36;;;;;;;2.70;2.40;;;;;;;;;;5138288;27;20556;-62
2023/09/26 02:48:05;;;;;;;2.95;2.75;;;;;;;;;;5137790;27;20206;-62
2023/09/26 02:50:35;;;;;;;2.85;2.65;;;;;;;;;;5137983;27;20202;-62
2023/09/26 02:53:03;;;;;;;2.67;2.50;;;;;;;;;;5137339;27;20203;-62
2023/09/26 02:55:30;;;;;;;2.90;2.70;;;;;;;;;;5138277;27;20644;-61
2023/09/26 02:57:58;;;;;;;2.65;2.45;;;;;;;;;;5137888;27;20254;-61
2023/09/26 03:00:26;;;;;;;3.10;2.88;;;;;;;;;;5137451;27;20745;-62
2023/09/26 03:02:53;;;;;;;2.40;2.20;;;;;;;;;;5137446;27;20210;-62
2023/09/26 03:05:21;;;;;;;2.75;2.55;;;;;;;;;;5137528;27;20692;-62
2023/09/26 03:07:51;;;;;;;2.88;2.67;;;;;;;;;;5138258;27;20198;-61
2023/09/26 03:10:18;;;;;;;2.60;2.40;;;;;;;;;;5137472;27;20301;-62
2023/09/26 03:12:46;;;;;;;2.70;2.50;;;;;;;;;;5137914;27;20297;-62
2023/09/26 03:15:14;;;;;;;2.58;2.38;;;;;;;;;;5136327;27;20245;-62
2023/09/26 03:17:42;;;;;;;2.50;2.30;;;;;;;;;;5136728;27;20325;-62
2023/09/26 03:20:14;;;;;;;2.92;2.72;;;;;;;;;;5137234;27;20198;-62
2023/09/26 03:22:42;;;;;;;2.70;2.50;;;;;;;;;;5137598;27;20597;-61
2023/09/26 03:25:12;;;;;;;2.65;2.47;;;;;;;;;;5137266;28;20680;-61
2023/09/26 03:27:40;;;;;;;2.65;2.50;;;;;;;;;;5137960;27;20194;-61
2023/09/26 03:30:09;;;;;;;2.80;2.60;;;;;;;;;;5137022;27;20234;-62
2023/09/26 03:32:37;;;;;;;2.60;2.40;;;;;;;;;;5137468;28;20614;-61
2023/09/26 03:35:06;;;;;;;2.78;2.58;;;;;;;;;;5137204;28;20235;-62
2023/09/26 03:37:34;;;;;;;2.78;2.58;;;;;;;;;;5136748;27;20209;-61
2023/09/26 03:40:02;;;;;;;2.55;2.35;;;;;;;;;;5136578;27;20292;-62
2023/09/26 03:42:31;;;;;;;2.58;2.40;;;;;;;;;;5137517;27;20629;-61
2023/09/26 03:44:59;;;;;;;2.80;2.60;;;;;;;;;;5137335;27;20689;-62
2023/09/26 03:47:27;;;;;;;2.80;2.60;;;;;;;;;;5137249;28;20233;-62
2023/09/26 03:49:55;;;;;;;3.10;2.90;;;;;;;;;;5136946;27;20198;-62
2023/09/26 03:52:23;;;;;;;2.97;2.78;;;;;;;;;;5137132;27;20207;-62
2023/09/26 03:54:51;;;;;;;2.80;2.60;;;;;;;;;;5137047;27;20212;-61
2023/09/26 03:57:19;;;;;;;2.83;2.63;;;;;;;;;;5136797;27;20283;-62
2023/09/26 03:59:51;;;;;;;2.78;2.58;;;;;;;;;;5136738;27;20289;-62
2023/09/26 04:02:18;;;;;;;2.90;2.67;;;;;;;;;;5136398;27;20226;-62
2023/09/26 04:04:46;;;;;;;2.90;2.70;;;;;;;;;;5125489;28;20713;-62
2023/09/26 04:07:13;;;;;;;2.90;2.70;;;;;;;;;;5115920;28;20206;-61
2023/09/26 04:09:41;;;;;;;3.03;2.80;;;;;;;;;;5115978;28;20199;-61
2023/09/26 04:12:09;;;;;;;2.75;2.60;;;;;;;;;;5116130;28;20211;-62
2023/09/26 04:14:36;;;;;;;3.22;2.92;;;;;;;;;;5116048;28;20259;-61
2023/09/26 04:17:06;;;;;;;2.90;2.70;;;;;;;;;;5115135;28;20264;-62
2023/09/26 04:19:34;;;;;;;3.10;2.90;;;;;;;;;;5115632;28;20622;-61
2023/09/26 04:22:02;;;;;;;2.83;2.63;;;;;;;;;;5115094;28;20256;-62
2023/09/26 04:24:29;;;;;;;2.67;2.47;;;;;;;;;;5115263;28;20586;-61
2023/09/26 04:26:57;;;;;;;2.65;2.50;;;;;;;;;;5116540;28;20210;-62
2023/09/26 04:29:25;;;;;;;2.92;2.72;;;;;;;;;;5118996;28;20489;-61
2023/09/26 04:31:52;;;;;;;2.47;2.38;;;;;;;;;;5119033;28;20301;-62
2023/09/26 04:34:22;;;;;;;3.33;2.85;;;;;;;;;;5118778;28;20223;-62
2023/09/26 04:36:49;;;;;;;2.60;2.40;;;;;;;;;;5118756;28;20199;-62
2023/09/26 04:39:18;;;;;;;2.60;2.40;;;;;;;;;;5117917;28;20277;-62
2023/09/26 04:41:45;;;;;;;2.55;2.40;;;;;;;;;;5117790;28;20294;-62
2023/09/26 04:44:13;;;;;;;2.72;2.53;;;;;;;;;;5118183;28;20229;-62
2023/09/26 04:46:40;;;;;;;2.60;2.40;;;;;;;;;;5118539;28;20202;-61
2023/09/26 04:49:08;;;;;;;2.80;2.60;;;;;;;;;;5118062;28;20191;-61
2023/09/26 04:51:37;;;;;;;3.10;2.90;;;;;;;;;;5118572;28;20203;-62
2023/09/26 04:54:05;;;;;;;2.72;2.53;;;;;;;;;;5118064;28;20289;-62
2023/09/26 04:56:32;;;;;;;2.88;2.67;;;;;;;;;;5118254;28;20206;-61
2023/09/26 04:59:00;;;;;;;2.90;2.70;;;;;;;;;;5117422;28;20317;-62
2023/09/26 05:01:28;;;;;;;3.20;2.90;;;;;;;;;;5117171;28;20195;-61
2023/09/26 05:03:55;;;;;;;3.28;3.08;;;;;;;;;;5118322;28;20612;-61
2023/09/26 05:06:23;;;;;;;3.03;2.83;;;;;;;;;;5117755;28;20231;-62
2023/09/26 05:08:52;;;;;;;3.28;3.08;;;;;;;;;;5117060;28;20202;-62
2023/09/26 05:11:19;;;;;;;3.10;2.85;;;;;;;;;;5116896;28;20199;-62
2023/09/26 05:13:47;;;;;;;3.20;3.00;;;;;;;;;;5117154;28;20211;-62
2023/09/26 05:16:15;;;;;;;3.20;3.00;;;;;;;;;;5117513;28;20286;-62
2023/09/26 05:18:42;;;;;;;3.00;2.80;;;;;;;;;;5115879;28;20278;-62
2023/09/26 05:21:11;;;;;;;3.60;3.30;;;;;;;;;;5117102;28;20290;-62
2023/09/26 05:23:39;;;;;;;3.20;3.00;;;;;;;;;;5117676;28;20539;-62
2023/09/26 05:26:08;;;;;;;3.38;2.90;;;;;;;;;;5117117;28;20209;-61
2023/09/26 05:28:36;;;;;;;3.03;2.83;;;;;;;;;;5117091;28;20255;-61
2023/09/26 05:31:04;;;;;;;2.58;2.40;;;;;;;;;;5117476;28;20215;-61
2023/09/26 05:33:44;;;;;;;2.85;2.65;;;;;;;;;;5117181;28;20547;-62
2023/09/26 05:36:12;;;;;;;3.10;2.90;;;;;;;;;;5116913;28;20497;-62
2023/09/26 05:38:39;;;;;;;3.28;2.95;;;;;;;;;;5115473;28;20219;-62
2023/09/26 05:41:08;;;;;;;2.80;2.60;;;;;;;;;;5115974;28;20546;-62
2023/09/26 05:43:36;;;;;;;3.13;2.92;;;;;;;;;;5115452;28;20615;-61
2023/09/26 05:46:04;;;;;;;3.53;3.30;;;;;;;;;;5115789;28;20203;-62
2023/09/26 05:48:31;;;;;;;3.42;2.95;;;;;;;;;;5115638;28;20290;-62
2023/09/26 05:51:00;;;;;;;3.20;2.90;;;;;;;;;;5103158;28;20525;-61
2023/09/26 05:53:28;;;;;;;3.17;2.97;;;;;;;;;;5114235;28;20238;-62
2023/09/26 05:55:55;;;;;;;3.50;3.20;;;;;;;;;;5116384;28;20202;-61
2023/09/26 05:58:24;;;;;;;3.35;3.05;;;;;;;;;;5115694;28;20199;-62
2023/09/26 06:00:53;;;;;;;3.33;3.13;;;;;;;;;;5116381;28;20221;-61
2023/09/26 06:03:21;;;;;;;3.60;3.22;;;;;;;;;;5115457;28;20203;-62
2023/09/26 06:05:48;;;;;;;3.75;3.17;;;;;;;;;;5116179;28;20291;-61
2023/09/26 06:08:16;;;;;;;3.80;3.50;;;;;;;;;;5116441;28;20716;-61
2023/09/26 06:10:44;;;;;;;3.63;3.40;;;;;;;;;;5116812;28;20271;-62
2023/09/26 06:13:13;;;;;;;3.67;3.47;;;;;;;;;;5116183;28;20210;-61
2023/09/26 06:15:43;;;;;;;4.00;3.60;;;;;;;;;;5116178;28;20267;-62
2023/09/26 06:18:11;;;;;;;3.60;3.30;;;;;;;;;;5116219;28;20214;-61
2023/09/26 06:20:40;;;;;;;3.65;3.40;;;;;;;;;;5117172;28;20219;-61
2023/09/26 06:23:07;;;;;;;3.72;3.30;;;;;;;;;;5115336;28;20201;-62
2023/09/26 06:25:35;;;;;;;3.88;3.58;;;;;;;;;;5116872;28;20225;-62
2023/09/26 06:28:03;;;;;;;3.60;3.40;;;;;;;;;;5115430;28;20277;-61
2023/09/26 06:30:31;;;;;;;3.33;3.13;;;;;;;;;;5115585;28;20290;-62
2023/09/26 06:33:00;;;;;;;3.72;3.50;;;;;;;;;;5115189;28;20226;-62
2023/09/26 06:35:28;;;;;;;3.92;3.63;;;;;;;;;;5115655;28;20203;-62
2023/09/26 06:37:56;;;;;;;3.80;3.50;;;;;;;;;;5115312;28;20811;-62
2023/09/26 06:40:23;;;;;;;3.50;3.30;;;;;;;;;;5115717;28;20227;-62
2023/09/26 06:42:51;;;;;;;3.70;3.40;;;;;;;;;;5115627;28;20207;-62
2023/09/26 06:45:18;;;;;;;4.43;3.65;;;;;;;;;;5115854;28;20199;-62
2023/09/26 06:47:46;;;;;;;3.65;3.40;;;;;;;;;;5115409;28;20218;-61
2023/09/26 06:50:15;;;;;;;3.92;3.63;;;;;;;;;;5114280;28;20528;-62
2023/09/26 06:52:42;;;;;;;4.07;3.78;;;;;;;;;;5115597;28;20203;-62
2023/09/26 06:55:11;;;;;;;3.80;3.50;;;;;;;;;;5115989;28;20199;-62
2023/09/26 06:57:39;;;;;;;3.90;3.60;;;;;;;;;;5115516;28;20289;-62
2023/09/26 07:00:11;;;;;;;3.83;3.53;;;;;;;;;;5116258;28;20222;-62
2023/09/26 07:02:39;;;;;;;3.97;3.67;;;;;;;;;;5116076;28;20213;-62
2023/09/26 07:05:08;;;;;;;3.85;3.55;;;;;;;;;;5115466;28;20239;-61
2023/09/26 07:07:37;;;;;;;3.92;3.63;;;;;;;;;;5116208;28;20221;-61
2023/09/26 07:10:05;;;;;;;3.70;3.40;;;;;;;;;;5116006;28;20264;-61
2023/09/26 07:12:32;;;;;;;3.80;3.47;;;;;;;;;;5115884;28;20672;-61
2023/09/26 07:15:00;;;;;;;3.83;3.45;;;;;;;;;;5116206;28;20205;-61
2023/09/26 07:17:28;;;;;;;4.10;3.80;;;;;;;;;;5116089;28;20546;-61
2023/09/26 07:19:56;;;;;;;3.40;3.10;;;;;;;;;;5116241;28;20229;-61
2023/09/26 07:22:24;;;;;;;3.97;3.67;;;;;;;;;;5115919;28;20230;-61
2023/09/26 07:24:53;;;;;;;3.85;3.55;;;;;;;;;;5115439;28;20580;-61
2023/09/26 07:27:21;;;;;;;4.00;3.70;;;;;;;;;;5115804;28;20215;-61
2023/09/26 07:29:49;;;;;;;4.38;4.00;;;;;;;;;;5115972;28;20281;-61
2023/09/26 07:32:17;;;;;;;4.75;4.35;;;;;;;;;;5115009;28;20565;-62
2023/09/26 07:34:44;;;;;;;6.68;6.07;;;;;;;;;;5115120;28;20202;-61
2023/09/26 07:37:13;;;;;;;5.85;5.35;;;;;;;;;;5115142;28;20202;-61
2023/09/26 07:39:43;;;;;;;6.55;5.95;;;;;;;;;;5115233;28;20279;-64
2023/09/26 07:42:12;;;;;;;7.13;5.32;;;;;;;;;;5115067;28;20437;-63
2023/09/26 07:44:40;;;;;;;6.50;5.50;;;;;;;;;;5115659;28;20207;-61
2023/09/26 07:47:08;;;;;;;7.32;5.88;;;;;;;;;;5114919;28;20202;-63
2023/09/26 07:49:36;;;;;;;6.57;5.68;;;;;;;;;;5114380;28;20210;-63
2023/09/26 07:52:04;;;;;;;6.20;5.60;;;;;;;;;;5114900;28;20207;-62
2023/09/26 07:54:32;;;;;;;6.57;5.90;;;;;;;;;;5115023;28;20491;-63
2023/09/26 07:57:00;;;;;;;6.55;5.95;;;;;;;;;;5115321;28;20202;-61
2023/09/26 07:59:29;;;;;;;6.63;5.93;;;;;;;;;;5114316;28;20227;-63
2023/09/26 08:01:57;;;;;;;6.03;5.40;;;;;;;;;;5116784;28;20588;-63
2023/09/26 08:04:25;;;;;;;5.82;5.30;;;;;;;;;;5119173;28;20199;-61
2023/09/26 08:06:52;;;;;;;6.47;5.93;;;;;;;;;;5119154;28;20195;-62
2023/09/26 08:09:20;;;;;;;5.78;5.28;;;;;;;;;;5118588;28;20260;-61
2023/09/26 08:11:47;;;;;;;6.30;5.15;;;;;;;;;;5118956;28;20218;-62
2023/09/26 08:14:15;;;;;;;5.78;5.28;;;;;;;;;;5118862;28;20210;-62
2023/09/26 08:16:44;;;;;;;5.85;5.35;;;;;;;;;;5119067;28;20314;-61
2023/09/26 08:19:12;;;;;;;5.68;5.10;;;;;;;;;;5118098;28;20291;-61
2023/09/26 08:21:39;;;;;;;5.50;5.00;;;;;;;;;;5118772;28;20203;-62
2023/09/26 08:24:07;;;;;;;4.70;4.28;;;;;;;;;;5119905;28;20544;-61
2023/09/26 08:26:35;;;;;;;4.28;3.88;;;;;;;;;;5119125;28;20203;-61
2023/09/26 08:29:04;;;;;;;4.22;3.83;;;;;;;;;;5118646;28;20477;-61
2023/09/26 08:31:32;;;;;;;4.20;3.80;;;;;;;;;;5118699;28;20209;-62
2023/09/26 08:34:01;;;;;;;4.28;3.88;;;;;;;;;;5117376;28;20210;-62
2023/09/26 08:36:29;;;;;;;5.15;4.20;;;;;;;;;;5117350;28;20588;-62
2023/09/26 08:38:57;;;;;;;4.63;4.15;;;;;;;;;;5117132;28;20214;-62
2023/09/26 08:41:26;;;;;;;4.55;4.05;;;;;;;;;;5117409;28;20492;-61
2023/09/26 08:43:54;;;;;;;5.00;4.50;;;;;;;;;;5117913;28;20298;-61
2023/09/26 08:46:22;;;;;;;5.65;5.15;;;;;;;;;;5117677;28;20260;-61
2023/09/26 08:48:50;;;;;;;6.50;5.85;;;;;;;;;;5118764;28;20226;-62
2023/09/26 08:51:19;;;;;;;6.18;5.57;;;;;;;;;;5117111;28;20769;-61
2023/09/26 08:53:46;;;;;;;7.03;5.82;;;;;;;;;;5117666;28;20214;-61
2023/09/26 08:56:14;;;;;;;6.75;6.05;;;;;;;;;;5118688;28;20211;-61
2023/09/26 08:58:42;;;;;;;6.25;5.65;;;;;;;;;;5118296;28;20203;-62
2023/09/26 09:01:10;;;;;;;6.70;6.10;;;;;;;;;;5117719;28;20223;-62
2023/09/26 09:03:37;;;;;;;6.38;5.78;;;;;;;;;;5117552;28;20203;-62
2023/09/26 09:06:05;;;;;;;6.20;5.60;;;;;;;;;;5117760;28;20649;-62
2023/09/26 09:08:34;;;;;;;8.23;6.07;;;;;;;;;;5117202;28;20576;-62
2023/09/26 09:11:01;;;;;;;7.25;6.43;;;;;;;;;;5118734;28;20217;-62
2023/09/26 09:13:30;;;;;;;8.57;7.00;;;;;;;;;;5116333;28;20584;-61
2023/09/26 09:16:11;;;;;;;7.72;6.88;;;;;;;;;;5118003;28;20207;-62
2023/09/26 09:18:39;;;;;;;9.02;8.05;;;;;;;;;;5117237;28;20210;-61
2023/09/26 09:21:27;;;;;;;9.32;8.18;;;;;;;;;;5117508;28;20232;-61
2023/09/26 09:23:57;;;;;;;10.23;9.20;;;;;;;;;;5111355;28;20584;-61
2023/09/26 09:26:26;;;;;;;12.93;9.23;;;;;;;;;;5116631;28;20642;-62
2023/09/26 09:28:55;;;;;;;10.52;9.43;;;;;;;;;;5118066;28;20194;-61
2023/09/26 09:31:23;;;;;;;10.10;9.10;;;;;;;;;;5117360;28;20195;-63
2023/09/26 09:33:52;;;;;;;10.57;8.82;;;;;;;;;;5117125;28;20242;-62
2023/09/26 09:36:21;;;;;;;9.80;8.80;;;;;;;;;;5116316;28;20543;-63
2023/09/26 09:38:48;;;;;;;10.13;9.00;;;;;;;;;;5116926;28;20202;-61
2023/09/26 09:41:17;;;;;;;10.02;8.95;;;;;;;;;;5116533;28;20226;-63
2023/09/26 09:43:45;;;;;;;9.75;8.80;;;;;;;;;;5117588;28;20203;-63
2023/09/26 09:46:13;;;;;;;10.45;8.45;;;;;;;;;;5116507;28;20708;-63
2023/09/26 09:48:43;;;;;;;10.40;9.30;;;;;;;;;;5116168;28;20211;-64
2023/09/26 09:51:13;;;;;;;10.43;9.32;;;;;;;;;;5116667;28;20199;-63
2023/09/26 09:53:45;;;;;;;10.35;9.30;;;;;;;;;;5116411;28;20203;-63
2023/09/26 09:56:18;;;;;;;12.82;10.30;;;;;;;;;;5116304;28;20604;-63
2023/09/26 09:58:50;;;;;;;10.98;9.75;;;;;;;;;;5116650;28;20211;-63
2023/09/26 10:01:19;;;;;;;12.05;10.60;;;;;;;;;;5116625;28;20238;-64
2023/09/26 10:03:50;;;;;;;12.52;11.23;;;;;;;;;;5116211;28;20588;-64
2023/09/26 10:06:18;;;;;;;13.15;11.25;;;;;;;;;;5115554;28;20245;-64
2023/09/26 10:08:47;;;;;;;12.70;10.48;;;;;;;;;;5117025;28;20294;-64
2023/09/26 10:11:15;;;;;;;12.40;10.63;;;;;;;;;;5115501;28;20203;-61
2023/09/26 10:13:43;;;;;;;11.30;10.20;;;;;;;;;;5115417;28;20466;-64
2023/09/26 10:16:15;;;;;;;12.52;11.23;;;;;;;;;;5115009;28;20203;-61
2023/09/26 10:18:43;;;;;;;10.75;9.70;;;;;;;;;;5114749;28;20214;-63
2023/09/26 10:21:23;;;;;;;11.68;10.48;;;;;;;;;;5115074;28;20219;-63
2023/09/26 10:24:09;;;;;;;12.98;10.48;;;;;;;;;;5115634;28;20202;-63
2023/09/26 10:26:39;;;;;;;11.55;10.38;;;;;;;;;;5114691;28;20213;-63
2023/09/26 10:29:07;;;;;;;11.52;10.30;;;;;;;;;;5113424;28;20568;-63
2023/09/26 10:31:36;;;;;;;12.02;10.85;;;;;;;;;;5113468;28;20585;-63
2023/09/26 10:34:04;;;;;;;11.93;10.73;;;;;;;;;;5114566;28;20203;-63
2023/09/26 10:36:32;;;;;;;12.50;11.20;;;;;;;;;;5114724;28;20214;-63
2023/09/26 10:39:00;;;;;;;13.13;11.82;;;;;;;;;;5112741;28;20207;-63
2023/09/26 10:41:28;;;;;;;12.50;11.30;;;;;;;;;;5113748;28;20292;-63
2023/09/26 10:43:55;;;;;;;11.70;10.60;;;;;;;;;;5113848;28;20203;-63
2023/09/26 10:46:23;;;;;;;13.02;10.93;;;;;;;;;;5114372;28;20233;-63
2023/09/26 10:48:52;;;;;;;11.43;10.25;;;;;;;;;;5114782;28;20253;-63
2023/09/26 10:51:20;;;;;;;12.52;11.23;;;;;;;;;;5115314;28;20207;-63
2023/09/26 10:53:49;;;;;;;11.25;10.18;;;;;;;;;;5114435;28;20213;-63
2023/09/26 10:56:16;;;;;;;11.13;9.90;;;;;;;;;;5114537;28;20202;-63
2023/09/26 10:58:44;;;;;;;11.68;10.55;;;;;;;;;;5114304;28;20229;-63
2023/09/26 11:01:11;;;;;;;10.88;9.80;;;;;;;;;;5114520;28;20631;-63
2023/09/26 11:03:39;;;;;;;11.73;10.52;;;;;;;;;;5114869;28;20203;-61
2023/09/26 11:06:08;;;;;;;11.20;9.80;;;;;;;;;;5114767;28;20277;-63
2023/09/26 11:08:36;;;;;;;12.38;10.73;;;;;;;;;;5113983;28;20294;-63
2023/09/26 11:11:04;;;;;;;11.25;10.25;;;;;;;;;;5114071;28;20592;-63
2023/09/26 11:13:32;;;;;;;12.05;10.85;;;;;;;;;;5114266;28;20203;-61
2023/09/26 11:15:59;;;;;;;10.68;9.68;;;;;;;;;;5112265;28;20199;-63
2023/09/26 11:18:28;;;;;;;11.00;9.93;;;;;;;;;;5113519;28;20674;-61
2023/09/26 11:20:55;;;;;;;11.27;10.05;;;;;;;;;;5114254;28;20228;-63
2023/09/26 11:23:36;;;;;;;12.40;11.15;;;;;;;;;;5114848;28;20198;-61
2023/09/26 11:26:04;;;;;;;13.25;11.13;;;;;;;;;;5113897;28;20199;-63
2023/09/26 11:28:32;;;;;;;12.23;10.75;;;;;;;;;;5114215;28;20293;-61
2023/09/26 11:31:00;;;;;;;12.00;10.57;;;;;;;;;;5114416;28;20264;-61
2023/09/26 11:33:28;;;;;;;11.70;10.50;;;;;;;;;;5113737;28;20198;-64
2023/09/26 11:35:56;;;;;;;11.85;10.65;;;;;;;;;;5113717;28;20491;-63
2023/09/26 11:38:24;;;;;;;12.25;11.05;;;;;;;;;;5117099;28;20205;-63
2023/09/26 11:40:55;;;;;;;12.15;10.95;;;;;;;;;;5117505;28;20323;-61
2023/09/26 11:43:22;;;;;;;12.07;10.85;;;;;;;;;;5116579;28;20206;-61
2023/09/26 11:45:50;;;;;;;12.45;10.38;;;;;;;;;;5118152;28;20214;-61
2023/09/26 11:48:20;;;;;;;11.55;10.45;;;;;;;;;;5117176;28;20210;-61
2023/09/26 11:50:47;;;;;;;11.55;10.43;;;;;;;;;;5117767;28;20619;-63
2023/09/26 11:53:16;;;;;;;12.75;11.48;;;;;;;;;;5117841;28;20203;-63
2023/09/26 11:55:50;;;;;;;11.55;10.45;;;;;;;;;;5118359;28;20195;-62
2023/09/26 11:58:19;;;;;;;12.77;11.45;;;;;;;;;;5117428;28;20210;-62
2023/09/26 12:00:47;;;;;;;11.57;10.38;;;;;;;;;;5117779;28;20215;-62
2023/09/26 12:03:14;;;;;;;11.48;10.45;;;;;;;;;;5117395;28;20202;-62
2023/09/26 12:05:42;;;;;;;12.23;11.02;;;;;;;;;;5117462;28;20636;-62
2023/09/26 12:08:10;;;;;;;12.30;11.00;;;;;;;;;;5117339;28;20260;-62
2023/09/26 12:10:38;;;;;;;12.70;11.40;;;;;;;;;;5117437;28;20199;-62
2023/09/26 12:13:07;;;;;;;12.32;11.23;;;;;;;;;;5117373;28;20217;-62
2023/09/26 12:15:36;;;;;;;12.20;11.00;;;;;;;;;;5118380;28;20259;-62
2023/09/26 12:18:04;;;;;;;12.60;10.55;;;;;;;;;;5117911;28;20249;-62
2023/09/26 12:20:32;;;;;;;12.93;11.57;;;;;;;;;;5116556;28;20217;-62
2023/09/26 12:22:59;;;;;;;12.23;11.13;;;;;;;;;;5117951;28;20358;-62
2023/09/26 12:25:28;;;;;;;13.25;11.98;;;;;;;;;;5117114;28;20213;-62
2023/09/26 12:27:56;;;;;;;12.68;11.38;;;;;;;;;;5113972;28;20293;-62
2023/09/26 12:30:23;;;;;;;14.30;11.98;;;;;;;;;;5117301;28;20222;-62
2023/09/26 12:32:52;;;;;;;13.93;12.45;;;;;;;;;;5116929;28;20199;-62
2023/09/26 12:35:20;;;;;;;13.52;11.82;;;;;;;;;;5116697;28;20569;-62
2023/09/26 12:37:48;;;;;;;13.02;11.55;;;;;;;;;;5117213;28;20211;-62
2023/09/26 12:40:16;;;;;;;13.70;11.77;;;;;;;;;;5118122;28;20295;-62
2023/09/26 12:42:44;;;;;;;13.38;12.18;;;;;;;;;;5116920;28;20229;-62
2023/09/26 12:45:12;;;;;;;12.77;11.52;;;;;;;;;;5116518;28;20226;-61
2023/09/26 12:47:39;;;;;;;13.43;11.93;;;;;;;;;;5115153;28;20210;-62
2023/09/26 12:50:11;;;;;;;13.05;11.85;;;;;;;;;;5117066;28;20203;-62
2023/09/26 12:52:39;;;;;;;13.15;11.93;;;;;;;;;;5116617;28;20199;-62
2023/09/26 12:55:07;;;;;;;13.35;12.15;;;;;;;;;;5116195;28;20205;-62
2023/09/26 12:57:35;;;;;;;14.30;12.95;;;;;;;;;;5116333;28;20218;-62
2023/09/26 13:00:06;;;;;;;13.65;12.35;;;;;;;;;;5116595;28;20203;-62
2023/09/26 13:02:34;;;;;;;13.85;12.52;;;;;;;;;;5116341;28;20647;-62
2023/09/26 13:05:01;;;;;;;13.68;12.35;;;;;;;;;;5115582;28;20246;-62
2023/09/26 13:07:30;;;;;;;14.27;12.77;;;;;;;;;;5114678;28;20482;-62
2023/09/26 13:09:58;;;;;;;12.90;11.63;;;;;;;;;;5116114;28;20231;-62
2023/09/26 13:12:25;;;;;;;15.00;13.45;;;;;;;;;;5115786;28;20203;-63
2023/09/26 13:14:53;;;;;;;14.15;12.73;;;;;;;;;;5115232;28;20585;-62
2023/09/26 13:17:21;;;;;;;14.93;13.45;;;;;;;;;;5116233;28;20483;-62
2023/09/26 13:19:49;;;;;;;14.18;12.73;;;;;;;;;;5114930;28;20206;-62
2023/09/26 13:22:17;;;;;;;14.25;12.95;;;;;;;;;;5115813;28;20223;-63
2023/09/26 13:24:46;;;;;;;14.70;13.20;;;;;;;;;;5115235;28;20203;-63
2023/09/26 13:27:13;;;;;;;13.63;12.32;;;;;;;;;;5116101;28;20210;-62
2023/09/26 13:29:41;;;;;;;14.95;13.55;;;;;;;;;;5115825;28;20202;-63
2023/09/26 13:32:09;;;;;;;14.68;13.15;;;;;;;;;;5115626;28;20657;-63
2023/09/26 13:34:39;;;;;;;14.27;12.88;;;;;;;;;;5115937;28;20241;-63
2023/09/26 13:37:06;;;;;;;13.40;12.20;;;;;;;;;;5114933;28;20202;-62
2023/09/26 13:39:34;;;;;;;14.38;12.88;;;;;;;;;;5114988;28;20482;-62
2023/09/26 13:42:03;;;;;;;13.85;12.55;;;;;;;;;;5114728;28;20287;-65
2023/09/26 13:44:31;;;;;;;14.45;13.07;;;;;;;;;;5115980;28;20203;-65
2023/09/26 13:46:59;;;;;;;16.13;14.55;;;;;;;;;;5114754;28;20194;-65
2023/09/26 13:49:27;;;;;;;15.15;13.65;;;;;;;;;;5114906;28;20238;-65
2023/09/26 13:51:57;;;;;;;14.63;13.20;;;;;;;;;;5115684;28;20295;-65
2023/09/26 13:54:26;;;;;;;13.80;12.60;;;;;;;;;;5115326;28;20213;-66
2023/09/26 13:56:54;;;;;;;13.90;12.50;;;;;;;;;;5115808;28;20289;-65
2023/09/26 13:59:23;;;;;;;13.80;12.35;;;;;;;;;;5115154;28;20199;-65
2023/09/26 14:01:51;;;;;;;14.48;13.07;;;;;;;;;;5115265;28;20254;-65
2023/09/26 14:04:19;;;;;;;12.32;11.23;;;;;;;;;;5115644;28;20210;-65
2023/09/26 14:06:46;;;;;;;12.68;11.50;;;;;;;;;;5076141;28;20221;-65
2023/09/26 14:09:14;;;;;;;11.82;10.60;;;;;;;;;;5074076;28;20477;-65
2023/09/26 14:11:42;;;;;;;13.23;11.95;;;;;;;;;;5074746;28;20291;-65
2023/09/26 14:14:10;;;;;;;12.85;11.55;;;;;;;;;;5073753;28;20298;-65
2023/09/26 14:16:39;;;;;;;12.63;11.35;;;;;;;;;;5073726;28;20215;-65
2023/09/26 14:19:07;;;;;;;12.23;11.00;;;;;;;;;;5073985;28;20200;-65
2023/09/26 14:21:35;;;;;;;11.30;10.30;;;;;;;;;;5073933;28;20285;-65
2023/09/26 14:24:03;;;;;;;11.52;10.43;;;;;;;;;;5073954;28;20204;-65
2023/09/26 14:26:31;;;;;;;11.07;10.07;;;;;;;;;;5073997;28;20212;-65
2023/09/26 14:29:01;;;;;;;10.75;9.65;;;;;;;;;;5073937;28;20200;-66
2023/09/26 14:31:28;;;;;;;9.85;8.95;;;;;;;;;;5074285;28;20266;-65
2023/09/26 14:33:57;;;;;;;10.45;9.45;;;;;;;;;;5072957;28;20207;-65
2023/09/26 14:36:25;;;;;;;10.77;9.75;;;;;;;;;;5073528;28;20204;-65
2023/09/26 14:38:53;;;;;;;10.18;9.27;;;;;;;;;;5073872;28;20529;-65